createdAt,value
2023-02-02T00:01:38.050Z,17.30
2023-02-02T00:04:05.122Z,20.67
2023-02-02T00:06:33.064Z,12.33
2023-02-02T00:09:01.243Z,14.93
2023-02-02T00:11:28.435Z,15.43
2023-02-02T00:13:55.661Z,13.53
2023-02-02T00:16:43.285Z,17.23
2023-02-02T00:19:31.658Z,14.03
2023-02-02T00:22:18.303Z,18.77
2023-02-02T00:25:05.367Z,13.50
2023-02-02T00:27:52.084Z,15.50
2023-02-02T00:30:19.285Z,17.10
2023-02-02T00:32:48.566Z,14.17
2023-02-02T00:35:15.870Z,19.53
2023-02-02T00:37:42.602Z,12.83
2023-02-02T00:40:10.322Z,20.17
2023-02-02T00:42:37.267Z,13.43
2023-02-02T00:45:17.091Z,14.60
2023-02-02T00:47:49.380Z,18.27
2023-02-02T00:50:21.325Z,17.53
2023-02-02T00:52:48.931Z,20.60
2023-02-02T00:55:16.962Z,15.93
2023-02-02T00:57:46.761Z,19.70
2023-02-02T01:00:16.138Z,18.43
2023-02-02T01:02:43.479Z,19.20
2023-02-02T01:05:11.794Z,16.53
2023-02-02T01:07:39.023Z,17.20
2023-02-02T01:10:08.608Z,16.57
2023-02-02T01:12:35.323Z,15.90
2023-02-02T01:15:02.843Z,16.80
2023-02-02T01:17:29.772Z,17.10
2023-02-02T01:19:56.533Z,14.90
2023-02-02T01:22:23.397Z,13.83
2023-02-02T01:24:50.156Z,20.40
2023-02-02T01:27:17.154Z,15.07
2023-02-02T01:29:43.919Z,16.57
2023-02-02T01:32:11.164Z,12.50
2023-02-02T01:34:41.778Z,20.00
2023-02-02T01:37:09.023Z,17.53
2023-02-02T01:39:36.155Z,14.80
2023-02-02T01:42:03.396Z,12.83
2023-02-02T01:45:07.584Z,19.23
2023-02-02T01:47:40.092Z,18.57
2023-02-02T01:50:09.984Z,19.33
2023-02-02T01:52:37.802Z,14.47
2023-02-02T01:55:09.474Z,12.90
2023-02-02T01:58:04.978Z,12.13
2023-02-02T02:00:31.824Z,13.03
2023-02-02T02:03:08.473Z,15.40
2023-02-02T02:05:43.494Z,19.77
2023-02-02T02:08:27.000Z,19.07
2023-02-02T02:10:54.653Z,19.07
2023-02-02T02:13:44.123Z,16.43
2023-02-02T02:16:20.983Z,18.43
2023-02-02T02:19:13.344Z,13.30
2023-02-02T02:22:24.457Z,21.57
2023-02-02T02:25:37.767Z,20.13
2023-02-02T02:28:16.405Z,16.40
2023-02-02T02:30:58.557Z,19.80
2023-02-02T02:33:33.326Z,15.43
2023-02-02T02:36:14.358Z,14.07
2023-02-02T02:39:18.624Z,21.53
2023-02-02T02:41:52.576Z,14.73
2023-02-02T02:44:20.333Z,16.93
2023-02-02T02:46:48.237Z,19.80
2023-02-02T02:49:14.988Z,13.97
2023-02-02T02:51:44.829Z,18.63
2023-02-02T02:54:18.944Z,19.70
2023-02-02T02:57:09.947Z,19.40
2023-02-02T03:00:00.275Z,17.80
2023-02-02T03:02:34.994Z,17.27
2023-02-02T03:05:07.909Z,16.13
2023-02-02T03:07:51.486Z,17.00
2023-02-02T03:10:23.486Z,27.30
2023-02-02T03:12:51.836Z,22.00
2023-02-02T03:15:19.592Z,20.17
2023-02-02T03:17:49.085Z,14.10
2023-02-02T03:20:16.439Z,13.63
2023-02-02T03:22:43.109Z,18.57
2023-02-02T03:25:11.491Z,20.20
2023-02-02T03:27:39.495Z,24.73
2023-02-02T03:30:09.503Z,21.30
2023-02-02T03:32:37.277Z,22.03
2023-02-02T03:35:04.854Z,23.20
2023-02-02T03:37:31.523Z,23.60
2023-02-02T03:39:58.199Z,26.90
2023-02-02T03:42:24.869Z,25.60
2023-02-02T03:44:51.581Z,18.97
2023-02-02T03:47:18.413Z,24.00
2023-02-02T03:49:45.632Z,18.23
2023-02-02T03:52:13.301Z,18.10
2023-02-02T03:54:40.164Z,21.67
2023-02-02T03:57:06.851Z,19.50
2023-02-02T03:59:33.510Z,18.77
2023-02-02T04:02:00.528Z,27.90
2023-02-02T04:04:27.276Z,19.30
2023-02-02T04:06:53.933Z,26.17
2023-02-02T04:09:20.651Z,17.67
2023-02-02T04:11:47.314Z,19.77
2023-02-02T04:14:13.972Z,18.13
2023-02-02T04:16:40.794Z,22.37
2023-02-02T04:19:07.438Z,16.97
2023-02-02T04:21:34.163Z,22.13
2023-02-02T04:24:00.931Z,17.83
2023-02-02T04:26:28.549Z,19.00
2023-02-02T04:28:55.358Z,16.53
2023-02-02T04:31:22.091Z,20.90
2023-02-02T04:33:48.878Z,21.67
2023-02-02T04:36:15.631Z,18.13
2023-02-02T04:38:42.283Z,31.03
2023-02-02T04:41:11.883Z,19.53
2023-02-02T04:43:39.210Z,16.90
2023-02-02T04:46:06.293Z,16.30
2023-02-02T04:48:33.055Z,17.27
2023-02-02T04:51:08.154Z,19.00
2023-02-02T04:53:35.323Z,23.67
2023-02-02T04:56:10.141Z,13.73
2023-02-02T04:58:36.864Z,17.27
2023-02-02T05:01:24.107Z,21.33
2023-02-02T05:03:51.360Z,17.80
2023-02-02T05:06:19.529Z,14.97
2023-02-02T05:08:48.057Z,18.80
2023-02-02T05:11:20.479Z,20.53
2023-02-02T05:13:48.721Z,21.40
2023-02-02T05:16:16.537Z,22.10
2023-02-02T05:18:43.592Z,15.07
2023-02-02T05:21:10.328Z,18.27
2023-02-02T05:23:36.998Z,16.57
2023-02-02T05:26:04.316Z,19.07
2023-02-02T05:28:31.350Z,15.73
2023-02-02T05:30:58.012Z,13.77
2023-02-02T05:33:24.729Z,18.00
2023-02-02T05:35:51.819Z,13.13
2023-02-02T05:38:18.656Z,18.33
2023-02-02T05:40:45.332Z,24.90
2023-02-02T05:43:12.027Z,18.63
2023-02-02T05:45:38.989Z,19.40
2023-02-02T05:48:06.335Z,16.77
2023-02-02T05:50:33.231Z,16.80
2023-02-02T05:53:00.176Z,28.10
2023-02-02T05:55:26.967Z,18.07
2023-02-02T05:57:53.698Z,17.43
2023-02-02T06:00:20.781Z,13.47
2023-02-02T06:02:47.625Z,19.23
2023-02-02T06:05:14.387Z,23.57
2023-02-02T06:07:41.042Z,13.10
2023-02-02T06:10:08.040Z,10.30
2023-02-02T06:12:34.716Z,18.07
2023-02-02T06:15:01.461Z,17.10
2023-02-02T06:17:28.122Z,16.17
2023-02-02T06:19:54.942Z,20.83
2023-02-02T06:22:21.573Z,18.10
2023-02-02T06:24:48.302Z,17.03
2023-02-02T06:27:14.942Z,19.67
2023-02-02T06:29:41.627Z,16.17
2023-02-02T06:32:08.379Z,14.73
2023-02-02T06:34:35.113Z,15.83
2023-02-02T06:37:01.939Z,20.20
2023-02-02T06:39:28.657Z,18.33
2023-02-02T06:41:55.437Z,18.43
2023-02-02T06:44:22.069Z,18.40
2023-02-02T06:46:48.944Z,15.60
2023-02-02T06:49:15.573Z,13.83
2023-02-02T06:51:42.257Z,19.40
2023-02-02T06:54:08.956Z,18.40
2023-02-02T06:56:35.590Z,17.77
2023-02-02T06:59:02.682Z,16.57
2023-02-02T07:01:29.503Z,17.97
2023-02-02T07:03:56.358Z,16.93
2023-02-02T07:06:25.557Z,18.27
2023-02-02T07:09:02.224Z,14.77
2023-02-02T07:11:34.592Z,13.90
2023-02-02T07:14:01.972Z,15.27
2023-02-02T07:16:28.927Z,9.40
2023-02-02T07:18:57.423Z,12.93
2023-02-02T07:21:28.465Z,10.80
2023-02-02T07:23:55.108Z,12.27
2023-02-02T07:26:22.027Z,11.67
2023-02-02T07:28:48.730Z,8.77
2023-02-02T07:31:18.418Z,8.00
2023-02-02T07:33:46.177Z,10.93
2023-02-02T07:36:16.397Z,13.67
2023-02-02T07:38:44.124Z,10.50
2023-02-02T07:41:12.016Z,6.53
2023-02-02T07:43:39.055Z,7.27
2023-02-02T07:46:10.061Z,8.07
2023-02-02T07:48:37.384Z,7.57
2023-02-02T07:51:06.478Z,8.13
2023-02-02T07:53:34.480Z,9.00
2023-02-02T07:56:11.194Z,6.10
2023-02-02T07:58:38.735Z,8.97
2023-02-02T08:01:08.170Z,8.13
2023-02-02T08:03:38.351Z,6.27
2023-02-02T08:06:26.315Z,14.60
2023-02-02T08:08:52.933Z,9.00
2023-02-02T08:11:21.591Z,10.87
2023-02-02T08:13:53.702Z,9.90
2023-02-02T08:16:21.151Z,10.20
2023-02-02T08:18:48.426Z,9.50
2023-02-02T08:21:17.343Z,7.27
2023-02-02T08:23:45.796Z,10.73
2023-02-02T08:26:18.833Z,10.73
2023-02-02T08:28:48.580Z,10.50
2023-02-02T08:31:16.857Z,15.10
2023-02-02T08:33:44.113Z,4.40
2023-02-02T08:36:15.329Z,8.73
2023-02-02T08:38:42.292Z,13.43
2023-02-02T08:41:12.551Z,6.53
2023-02-02T08:43:40.501Z,13.13
2023-02-02T08:46:09.668Z,7.60
2023-02-02T08:48:38.954Z,7.10
2023-02-02T08:51:07.159Z,9.17
2023-02-02T08:53:34.243Z,8.27
2023-02-02T08:56:22.145Z,7.77
2023-02-02T08:58:50.260Z,6.23
2023-02-02T09:01:18.786Z,9.57
2023-02-02T09:03:46.673Z,8.10
2023-02-02T09:06:16.260Z,7.37
2023-02-02T09:08:43.377Z,5.90
2023-02-02T09:11:14.705Z,7.63
2023-02-02T09:13:42.349Z,9.47
2023-02-02T09:16:11.469Z,5.20
2023-02-02T09:18:38.787Z,5.47
2023-02-02T09:21:07.814Z,9.70
2023-02-02T09:23:37.773Z,9.80
2023-02-02T09:26:25.748Z,4.53
2023-02-02T09:29:02.728Z,5.70
2023-02-02T09:31:31.541Z,5.57
2023-02-02T09:34:05.136Z,9.67
2023-02-02T09:36:32.270Z,9.53
2023-02-02T09:38:59.349Z,10.37
2023-02-02T09:41:55.889Z,5.33
2023-02-02T09:44:59.696Z,5.70
2023-02-02T09:47:39.949Z,7.73
2023-02-02T09:50:24.942Z,6.63
2023-02-02T09:52:59.683Z,7.00
2023-02-02T09:55:48.353Z,7.03
2023-02-02T09:58:30.777Z,7.13
2023-02-02T10:01:08.745Z,7.53
2023-02-02T10:04:22.283Z,5.27
2023-02-02T10:06:52.571Z,6.73
2023-02-02T10:09:48.186Z,8.57
2023-02-02T10:12:47.546Z,6.33
2023-02-02T10:15:32.674Z,4.27
2023-02-02T10:18:08.830Z,5.20
2023-02-02T10:20:51.387Z,8.70
2023-02-02T10:23:37.757Z,5.53
2023-02-02T10:26:16.068Z,8.13
2023-02-02T10:29:11.091Z,7.83
2023-02-02T10:31:53.623Z,5.37
2023-02-02T10:34:29.407Z,7.33
2023-02-02T10:37:22.034Z,6.23
2023-02-02T10:40:22.699Z,8.17
2023-02-02T10:43:40.847Z,7.13
2023-02-02T10:46:46.414Z,5.97
2023-02-02T10:49:25.450Z,5.20
2023-02-02T10:52:25.189Z,6.90
2023-02-02T10:55:30.256Z,7.20
2023-02-02T10:58:26.048Z,6.60
2023-02-02T11:00:56.718Z,6.23
2023-02-02T11:03:32.884Z,8.20
2023-02-02T11:06:21.667Z,8.37
2023-02-02T11:09:05.440Z,6.80
2023-02-02T11:11:50.739Z,8.50
2023-02-02T11:14:41.878Z,10.77
2023-02-02T11:17:24.449Z,9.43
2023-02-02T11:19:55.746Z,4.93
2023-02-02T11:22:34.576Z,4.50
2023-02-02T11:25:06.470Z,8.47
2023-02-02T11:27:39.718Z,5.90
2023-02-02T11:30:22.382Z,9.43
2023-02-02T11:32:50.908Z,13.63
2023-02-02T11:35:21.653Z,6.37
2023-02-02T11:38:06.792Z,13.27
2023-02-02T11:40:39.470Z,11.33
2023-02-02T11:43:20.932Z,11.27
2023-02-02T11:45:56.475Z,9.13
2023-02-02T11:48:28.480Z,9.80
2023-02-02T11:50:57.844Z,9.10
2023-02-02T11:53:26.907Z,9.80
2023-02-02T11:55:55.156Z,8.10
2023-02-02T11:58:27.721Z,9.20
2023-02-02T12:01:00.734Z,8.37
2023-02-02T12:03:38.983Z,9.87
2023-02-02T12:06:38.881Z,9.80
2023-02-02T12:09:19.742Z,12.77
2023-02-02T12:11:59.982Z,8.03
2023-02-02T12:14:44.136Z,15.03
2023-02-02T12:17:33.136Z,8.07
2023-02-02T12:20:13.869Z,8.90
2023-02-02T12:23:02.491Z,9.07
2023-02-02T12:25:44.077Z,8.13
2023-02-02T12:28:42.494Z,8.40
2023-02-02T12:31:26.932Z,10.80
2023-02-02T12:34:02.824Z,10.83
2023-02-02T12:37:06.526Z,11.70
2023-02-02T12:39:47.710Z,13.17
2023-02-02T12:42:33.174Z,12.70
2023-02-02T12:45:34.040Z,10.07
2023-02-02T12:48:16.467Z,10.63
2023-02-02T12:51:07.350Z,7.70
2023-02-02T12:54:33.552Z,12.93
2023-02-02T12:57:02.367Z,9.80
2023-02-02T12:59:47.674Z,10.33
2023-02-02T13:02:29.618Z,11.83
2023-02-02T13:05:42.757Z,7.83
2023-02-02T13:08:15.335Z,11.70
2023-02-02T13:10:55.287Z,8.13
2023-02-02T13:13:38.449Z,8.23
2023-02-02T13:16:13.897Z,8.20
2023-02-02T13:18:56.883Z,10.30
2023-02-02T13:21:25.115Z,9.93
2023-02-02T13:23:57.030Z,10.33
2023-02-02T13:26:35.605Z,11.40
2023-02-02T13:29:16.479Z,10.73
2023-02-02T13:31:58.361Z,9.00
2023-02-02T13:34:28.996Z,16.83
2023-02-02T13:37:26.773Z,4.60
2023-02-02T13:40:01.137Z,6.57
2023-02-02T13:42:50.064Z,9.97
2023-02-02T13:45:51.197Z,13.30
2023-02-02T13:48:34.949Z,8.27
2023-02-02T13:51:23.449Z,8.83
2023-02-02T13:54:15.164Z,17.10
2023-02-02T13:56:41.934Z,7.00
2023-02-02T13:59:33.370Z,10.60
2023-02-02T14:02:00.549Z,7.40
2023-02-02T14:04:31.854Z,8.37
2023-02-02T14:07:05.307Z,11.40
2023-02-02T14:09:35.743Z,10.80
2023-02-02T14:12:09.759Z,17.47
2023-02-02T14:14:39.879Z,9.43
2023-02-02T14:17:19.425Z,9.30
2023-02-02T14:19:55.433Z,10.90
2023-02-02T14:22:54.574Z,13.53
2023-02-02T14:25:33.531Z,8.57
2023-02-02T14:28:09.255Z,9.83
2023-02-02T14:30:38.982Z,8.67
2023-02-02T14:33:39.848Z,10.57
2023-02-02T14:36:14.484Z,10.03
2023-02-02T14:38:53.366Z,9.47
2023-02-02T14:41:55.966Z,9.57
2023-02-02T14:44:22.753Z,11.37
2023-02-02T14:46:49.634Z,10.40
2023-02-02T14:49:20.948Z,8.20
2023-02-02T14:51:52.378Z,12.23
2023-02-02T14:54:42.719Z,11.00
2023-02-02T14:57:27.844Z,11.83
2023-02-02T14:59:58.744Z,15.17
2023-02-02T15:02:37.756Z,13.93
2023-02-02T15:05:39.711Z,9.97
2023-02-02T15:08:13.765Z,8.23
2023-02-02T15:10:53.951Z,11.83
2023-02-02T15:13:37.733Z,9.90
2023-02-02T15:16:19.327Z,11.77
2023-02-02T15:18:53.925Z,9.53
2023-02-02T15:21:22.062Z,10.17
2023-02-02T15:23:48.963Z,12.50
2023-02-02T15:26:25.014Z,12.23
2023-02-02T15:28:57.429Z,11.90
2023-02-02T15:31:51.949Z,12.83
2023-02-02T15:34:33.949Z,7.57
2023-02-02T15:37:05.992Z,10.30
2023-02-02T15:39:43.003Z,9.47
2023-02-02T15:42:42.541Z,10.67
2023-02-02T15:45:34.649Z,14.13
2023-02-02T15:48:05.605Z,15.33
2023-02-02T15:50:32.741Z,12.33
2023-02-02T15:52:59.647Z,12.00
2023-02-02T15:55:36.667Z,13.77
2023-02-02T15:58:03.697Z,12.93
2023-02-02T16:00:32.224Z,12.67
2023-02-02T16:03:09.600Z,12.13
2023-02-02T16:05:36.509Z,14.70
2023-02-02T16:08:08.705Z,14.03
2023-02-02T16:10:35.685Z,10.93
2023-02-02T16:13:03.574Z,10.90
2023-02-02T16:15:32.131Z,10.70
2023-02-02T16:18:03.579Z,11.63
2023-02-02T16:20:37.439Z,12.00
2023-02-02T16:23:10.130Z,17.77
2023-02-02T16:25:50.861Z,11.70
2023-02-02T16:28:21.410Z,10.57
2023-02-02T16:30:48.910Z,10.17
2023-02-02T16:33:34.875Z,11.47
2023-02-02T16:36:04.517Z,8.87
2023-02-02T16:38:37.823Z,13.57
2023-02-02T16:41:12.920Z,12.20
2023-02-02T16:43:42.237Z,12.90
2023-02-02T16:46:16.724Z,11.43
2023-02-02T16:48:46.278Z,8.00
2023-02-02T16:51:15.853Z,10.70
2023-02-02T16:54:01.687Z,9.57
2023-02-02T16:56:34.603Z,11.40
2023-02-02T16:59:15.185Z,14.07
2023-02-02T17:01:47.229Z,15.57
2023-02-02T17:04:28.973Z,10.63
2023-02-02T17:07:05.435Z,13.10
2023-02-02T17:09:35.621Z,15.43
2023-02-02T17:12:36.469Z,17.30
2023-02-02T17:15:28.335Z,18.77
2023-02-02T17:17:56.291Z,16.37
2023-02-02T17:20:24.340Z,15.53
2023-02-02T17:22:55.607Z,13.80
2023-02-02T17:25:34.631Z,18.20
2023-02-02T17:28:03.602Z,12.40
2023-02-02T17:30:30.610Z,14.27
2023-02-02T17:32:57.543Z,14.93
2023-02-02T17:35:27.133Z,14.67
2023-02-02T17:37:54.596Z,19.00
2023-02-02T17:40:23.592Z,19.07
2023-02-02T17:42:52.949Z,16.30
2023-02-02T17:45:29.750Z,16.10
2023-02-02T17:47:56.952Z,25.87
2023-02-02T17:50:23.917Z,16.03
2023-02-02T17:52:50.780Z,18.07
2023-02-02T17:55:23.863Z,20.60
2023-02-02T17:57:51.845Z,20.63
2023-02-02T18:00:22.629Z,19.10
2023-02-02T18:02:51.465Z,15.73
2023-02-02T18:05:18.639Z,16.00
2023-02-02T18:07:45.441Z,16.70
2023-02-02T18:10:14.411Z,15.33
2023-02-02T18:12:41.475Z,15.27
2023-02-02T18:15:11.776Z,17.87
2023-02-02T18:17:38.503Z,18.47
2023-02-02T18:20:06.039Z,16.43
2023-02-02T18:22:33.141Z,20.07
2023-02-02T18:25:00.471Z,18.97
2023-02-02T18:27:29.870Z,15.53
2023-02-02T18:29:56.655Z,15.43
2023-02-02T18:32:23.468Z,15.37
2023-02-02T18:34:55.070Z,14.80
2023-02-02T18:37:23.297Z,17.40
2023-02-02T18:39:50.000Z,16.30
2023-02-02T18:42:16.791Z,17.90
2023-02-02T18:44:43.552Z,14.83
2023-02-02T18:47:10.287Z,18.40
2023-02-02T18:49:39.196Z,15.97
2023-02-02T18:52:07.488Z,17.67
2023-02-02T18:54:35.704Z,16.70
2023-02-02T18:57:02.535Z,17.27
2023-02-02T18:59:30.239Z,18.17
2023-02-02T19:01:57.019Z,20.33
2023-02-02T19:04:23.851Z,21.17
2023-02-02T19:07:09.472Z,16.83
2023-02-02T19:09:36.285Z,20.70
2023-02-02T19:12:13.876Z,21.70
2023-02-02T19:14:44.394Z,31.33
2023-02-02T19:17:15.194Z,29.10
2023-02-02T19:19:43.363Z,31.63
2023-02-02T19:22:23.390Z,26.47
2023-02-02T19:24:51.303Z,21.23
2023-02-02T19:27:24.256Z,23.07
2023-02-02T19:29:55.884Z,20.03
2023-02-02T19:32:27.168Z,22.37
2023-02-02T19:34:58.008Z,22.47
2023-02-02T19:37:27.671Z,24.83
2023-02-02T19:40:09.538Z,25.43
2023-02-02T19:42:43.374Z,23.50
2023-02-02T19:45:28.250Z,25.73
2023-02-02T19:48:00.584Z,29.10
2023-02-02T19:50:37.914Z,26.10
2023-02-02T19:53:20.070Z,29.47
2023-02-02T19:55:47.452Z,27.50
2023-02-02T19:58:19.595Z,30.87
2023-02-02T20:00:49.175Z,29.67
2023-02-02T20:03:19.154Z,31.60
2023-02-02T20:05:51.484Z,33.60
2023-02-02T20:08:38.278Z,31.43
2023-02-02T20:11:31.966Z,30.57
2023-02-02T20:14:00.669Z,31.03
2023-02-02T20:16:38.327Z,32.23
2023-02-02T20:19:05.113Z,31.27
2023-02-02T20:21:42.055Z,32.40
2023-02-02T20:24:28.612Z,32.30
2023-02-02T20:26:58.536Z,33.60
2023-02-02T20:29:41.297Z,33.17
2023-02-02T20:32:19.679Z,33.03
2023-02-02T20:34:46.554Z,30.03
2023-02-02T20:37:13.175Z,33.47
2023-02-02T20:39:40.675Z,32.30
2023-02-02T20:42:07.503Z,32.20
2023-02-02T20:44:35.141Z,33.03
2023-02-02T20:47:02.887Z,30.27
2023-02-02T20:49:31.963Z,31.70
2023-02-02T20:52:00.871Z,31.20
2023-02-02T20:54:28.900Z,28.97
2023-02-02T20:56:55.683Z,30.10
2023-02-02T20:59:22.780Z,31.33
2023-02-02T21:01:50.568Z,27.23
2023-02-02T21:04:18.970Z,28.57
2023-02-02T21:06:46.522Z,30.90
2023-02-02T21:09:13.254Z,28.27
2023-02-02T21:11:40.023Z,30.47
2023-02-02T21:14:07.139Z,27.13
2023-02-02T21:16:34.014Z,30.77
2023-02-02T21:19:01.139Z,30.83
2023-02-02T21:21:27.928Z,33.20
2023-02-02T21:23:56.436Z,31.20
2023-02-02T21:26:27.322Z,29.23
2023-02-02T21:28:54.342Z,32.87
2023-02-02T21:31:21.147Z,33.27
2023-02-02T21:33:50.670Z,32.77
2023-02-02T21:36:23.435Z,29.37
2023-02-02T21:38:50.156Z,35.00
2023-02-02T21:41:16.915Z,33.90
2023-02-02T21:43:43.619Z,34.77
2023-02-02T21:46:28.895Z,35.33
2023-02-02T21:48:55.735Z,35.27
2023-02-02T21:51:25.782Z,36.13
2023-02-02T21:53:54.284Z,36.20
2023-02-02T21:56:35.979Z,38.53
2023-02-02T21:59:13.015Z,36.00
2023-02-02T22:01:40.170Z,39.90
2023-02-02T22:04:18.399Z,41.93
2023-02-02T22:07:10.102Z,38.37
2023-02-02T22:09:42.897Z,42.27
2023-02-02T22:12:24.309Z,39.90
2023-02-02T22:15:00.310Z,42.93
2023-02-02T22:17:40.832Z,43.03
2023-02-02T22:20:17.421Z,51.00
2023-02-02T22:22:50.372Z,44.87
2023-02-02T22:25:17.016Z,47.10
2023-02-02T22:28:00.610Z,46.53
2023-02-02T22:30:33.997Z,48.43
2023-02-02T22:33:00.692Z,46.40
2023-02-02T22:35:27.420Z,51.20
2023-02-02T22:37:54.115Z,48.13
2023-02-02T22:40:23.972Z,51.67
2023-02-02T22:42:52.200Z,53.13
2023-02-02T22:45:19.009Z,50.23
2023-02-02T22:47:47.605Z,52.00
2023-02-02T22:50:15.552Z,51.83
2023-02-02T22:52:43.034Z,49.20
2023-02-02T22:55:10.888Z,51.83
2023-02-02T22:57:38.039Z,55.20
2023-02-02T23:00:10.587Z,52.13
2023-02-02T23:02:37.497Z,55.83
2023-02-02T23:05:05.278Z,56.03
2023-02-02T23:07:31.925Z,57.97
2023-02-02T23:09:58.746Z,53.80
2023-02-02T23:12:25.476Z,56.60
2023-02-02T23:14:52.248Z,58.77
2023-02-02T23:17:18.937Z,59.30
2023-02-02T23:19:45.644Z,63.10
2023-02-02T23:22:12.318Z,58.90
2023-02-02T23:24:39.086Z,60.23
2023-02-02T23:27:05.949Z,68.63
2023-02-02T23:29:32.664Z,63.20
2023-02-02T23:31:59.382Z,63.30
2023-02-02T23:34:26.073Z,62.70
2023-02-02T23:36:53.636Z,66.73
2023-02-02T23:39:20.357Z,63.30
2023-02-02T23:41:47.207Z,59.13
2023-02-02T23:44:14.014Z,64.60
2023-02-02T23:46:42.977Z,60.07
2023-02-02T23:49:09.906Z,61.03
2023-02-02T23:51:36.739Z,68.23
2023-02-02T23:54:03.618Z,59.83
2023-02-02T23:56:30.715Z,57.47
2023-02-02T23:58:57.438Z,58.57
